Terminal Aerodrome Forecast
Issued by NWS

Home | Current Version | Previous Version | Text Only | Print | Product List | Glossary On
Versions: 1 2 3 4 5 6 7 8 9 10 11 12 13 14 15 16 17 18
000
FTUS41 KBUF 252334
TAFJHW
TAF
KJHW 252334Z 2600/2624 21010KT P6SM BKN050
     FM260200 21012KT P6SM SCT100
     FM260800 22008KT P6SM BKN015
     FM261300 21009KT P6SM VCSH BKN040
     FM261700 20010G18KT 6SM -SHRA VCTS OVC040CB
     FM262200 20008KT P6SM BKN040
      AMD LTD TO CLD VIS AND WIND=

USA.gov is the U.S. government's official web portal to all federal, state and local government web resources and services.